sensor_id;sensor_type;location;lat;lon;timestamp;P1;durP1;ratioP1;P2;durP2;ratioP2
58637;SDS011;54976;51.510;7.522;2023-03-23T00:02:07;5.80;;;2.70;;
58637;SDS011;54976;51.510;7.522;2023-03-23T00:05:07;5.10;;;2.80;;
58637;SDS011;54976;51.510;7.522;2023-03-23T00:08:08;10.57;;;3.08;;
58637;SDS011;54976;51.510;7.522;2023-03-23T00:14:14;8.55;;;3.20;;
58637;SDS011;54976;51.510;7.522;2023-03-23T00:17:15;4.70;;;2.92;;
58637;SDS011;54976;51.510;7.522;2023-03-23T00:20:15;8.50;;;2.55;;
58637;SDS011;54976;51.510;7.522;2023-03-23T00:23:17;5.63;;;2.38;;
58637;SDS011;54976;51.510;7.522;2023-03-23T00:26:19;10.68;;;2.88;;
58637;SDS011;54976;51.510;7.522;2023-03-23T00:29:21;7.28;;;2.33;;
58637;SDS011;54976;51.510;7.522;2023-03-23T00:32:23;9.02;;;2.28;;
58637;SDS011;54976;51.510;7.522;2023-03-23T00:35:28;7.97;;;2.42;;
58637;SDS011;54976;51.510;7.522;2023-03-23T00:38:30;6.32;;;2.33;;
58637;SDS011;54976;51.510;7.522;2023-03-23T00:41:31;4.93;;;2.25;;
58637;SDS011;54976;51.510;7.522;2023-03-23T00:44:33;3.85;;;2.10;;
58637;SDS011;54976;51.510;7.522;2023-03-23T00:47:35;4.75;;;2.03;;
58637;SDS011;54976;51.510;7.522;2023-03-23T00:50:36;4.32;;;2.03;;
58637;SDS011;54976;51.510;7.522;2023-03-23T00:53:37;3.67;;;1.88;;
58637;SDS011;54976;51.510;7.522;2023-03-23T00:56:41;6.95;;;2.25;;
58637;SDS011;54976;51.510;7.522;2023-03-23T00:59:41;4.57;;;2.10;;
58637;SDS011;54976;51.510;7.522;2023-03-23T01:02:42;6.13;;;2.15;;
58637;SDS011;54976;51.510;7.522;2023-03-23T01:05:44;3.45;;;1.90;;
58637;SDS011;54976;51.510;7.522;2023-03-23T01:08:51;2.38;;;1.60;;
58637;SDS011;54976;51.510;7.522;2023-03-23T01:11:53;6.05;;;1.88;;
58637;SDS011;54976;51.510;7.522;2023-03-23T01:14:55;6.72;;;1.90;;
58637;SDS011;54976;51.510;7.522;2023-03-23T01:17:56;4.85;;;1.83;;
58637;SDS011;54976;51.510;7.522;2023-03-23T01:20:57;3.45;;;1.42;;
58637;SDS011;54976;51.510;7.522;2023-03-23T01:23:57;2.05;;;1.75;;
58637;SDS011;54976;51.510;7.522;2023-03-23T01:26:58;4.35;;;1.60;;
58637;SDS011;54976;51.510;7.522;2023-03-23T01:30:02;1.92;;;1.63;;
58637;SDS011;54976;51.510;7.522;2023-03-23T01:33:04;2.20;;;1.42;;
58637;SDS011;54976;51.510;7.522;2023-03-23T01:36:06;2.33;;;1.67;;
58637;SDS011;54976;51.510;7.522;2023-03-23T01:39:08;5.72;;;1.90;;
58637;SDS011;54976;51.510;7.522;2023-03-23T01:42:09;6.40;;;2.47;;
58637;SDS011;54976;51.510;7.522;2023-03-23T01:51:22;4.95;;;2.05;;
58637;SDS011;54976;51.510;7.522;2023-03-23T01:54:22;6.82;;;2.15;;
58637;SDS011;54976;51.510;7.522;2023-03-23T01:57:25;4.03;;;2.00;;
58637;SDS011;54976;51.510;7.522;2023-03-23T02:00:26;1.63;;;0.95;;
58637;SDS011;54976;51.510;7.522;2023-03-23T02:03:27;5.47;;;2.22;;
58637;SDS011;54976;51.510;7.522;2023-03-23T02:06:31;3.17;;;1.92;;
58637;SDS011;54976;51.510;7.522;2023-03-23T02:09:31;3.97;;;2.17;;
58637;SDS011;54976;51.510;7.522;2023-03-23T02:12:32;2.95;;;1.83;;
58637;SDS011;54976;51.510;7.522;2023-03-23T02:15:41;3.50;;;1.75;;
58637;SDS011;54976;51.510;7.522;2023-03-23T02:18:51;4.28;;;1.48;;
58637;SDS011;54976;51.510;7.522;2023-03-23T02:35:05;2.85;;;1.50;;
58637;SDS011;54976;51.510;7.522;2023-03-23T02:38:14;3.35;;;1.85;;
58637;SDS011;54976;51.510;7.522;2023-03-23T02:41:24;3.03;;;1.42;;
58637;SDS011;54976;51.510;7.522;2023-03-23T02:44:29;4.32;;;1.70;;
58637;SDS011;54976;51.510;7.522;2023-03-23T02:47:31;5.30;;;2.10;;
58637;SDS011;54976;51.510;7.522;2023-03-23T02:50:35;3.03;;;1.38;;
58637;SDS011;54976;51.510;7.522;2023-03-23T02:53:39;4.88;;;2.15;;
58637;SDS011;54976;51.510;7.522;2023-03-23T02:56:42;3.63;;;1.58;;
58637;SDS011;54976;51.510;7.522;2023-03-23T02:59:44;4.07;;;1.85;;
58637;SDS011;54976;51.510;7.522;2023-03-23T03:02:46;3.47;;;1.63;;
58637;SDS011;54976;51.510;7.522;2023-03-23T03:12:43;4.18;;;2.00;;
58637;SDS011;54976;51.510;7.522;2023-03-23T03:19:16;1.93;;;1.80;;
58637;SDS011;54976;51.510;7.522;2023-03-23T03:22:30;1.98;;;1.48;;
58637;SDS011;54976;51.510;7.522;2023-03-23T03:25:31;2.95;;;1.85;;
58637;SDS011;54976;51.510;7.522;2023-03-23T03:28:32;1.88;;;1.40;;
58637;SDS011;54976;51.510;7.522;2023-03-23T03:31:35;2.17;;;1.77;;
58637;SDS011;54976;51.510;7.522;2023-03-23T03:34:38;1.85;;;1.50;;
58637;SDS011;54976;51.510;7.522;2023-03-23T03:37:39;6.43;;;1.80;;
58637;SDS011;54976;51.510;7.522;2023-03-23T03:40:40;5.75;;;2.70;;
58637;SDS011;54976;51.510;7.522;2023-03-23T03:43:40;2.05;;;1.70;;
58637;SDS011;54976;51.510;7.522;2023-03-23T03:46:41;3.92;;;1.50;;
58637;SDS011;54976;51.510;7.522;2023-03-23T03:49:42;5.68;;;1.88;;
58637;SDS011;54976;51.510;7.522;2023-03-23T03:52:42;3.50;;;1.70;;
58637;SDS011;54976;51.510;7.522;2023-03-23T03:55:43;2.85;;;1.50;;
58637;SDS011;54976;51.510;7.522;2023-03-23T03:58:45;2.08;;;1.65;;
58637;SDS011;54976;51.510;7.522;2023-03-23T04:01:48;1.50;;;1.40;;
58637;SDS011;54976;51.510;7.522;2023-03-23T04:04:53;1.20;;;1.10;;
58637;SDS011;54976;51.510;7.522;2023-03-23T04:07:54;2.10;;;1.50;;
58637;SDS011;54976;51.510;7.522;2023-03-23T04:11:01;1.40;;;1.30;;
58637;SDS011;54976;51.510;7.522;2023-03-23T04:14:01;2.88;;;1.27;;
58637;SDS011;54976;51.510;7.522;2023-03-23T04:17:02;1.70;;;1.30;;
58637;SDS011;54976;51.510;7.522;2023-03-23T04:20:03;5.90;;;1.48;;
58637;SDS011;54976;51.510;7.522;2023-03-23T04:23:19;4.47;;;1.30;;
58637;SDS011;54976;51.510;7.522;2023-03-23T04:26:21;2.80;;;1.23;;
58637;SDS011;54976;51.510;7.522;2023-03-23T04:29:22;1.63;;;1.20;;
58637;SDS011;54976;51.510;7.522;2023-03-23T04:32:22;1.45;;;1.10;;
58637;SDS011;54976;51.510;7.522;2023-03-23T04:35:24;3.63;;;1.40;;
58637;SDS011;54976;51.510;7.522;2023-03-23T04:38:26;2.28;;;1.38;;
58637;SDS011;54976;51.510;7.522;2023-03-23T04:41:29;1.60;;;1.30;;
58637;SDS011;54976;51.510;7.522;2023-03-23T04:44:30;2.25;;;1.30;;
58637;SDS011;54976;51.510;7.522;2023-03-23T04:47:33;1.40;;;1.02;;
58637;SDS011;54976;51.510;7.522;2023-03-23T04:50:39;2.15;;;1.33;;
58637;SDS011;54976;51.510;7.522;2023-03-23T04:53:40;1.77;;;1.42;;
58637;SDS011;54976;51.510;7.522;2023-03-23T04:56:41;2.15;;;1.13;;
58637;SDS011;54976;51.510;7.522;2023-03-23T04:59:41;1.13;;;1.05;;
58637;SDS011;54976;51.510;7.522;2023-03-23T05:02:44;1.75;;;1.08;;
58637;SDS011;54976;51.510;7.522;2023-03-23T05:05:52;2.55;;;1.40;;
58637;SDS011;54976;51.510;7.522;2023-03-23T05:08:53;1.45;;;0.93;;
58637;SDS011;54976;51.510;7.522;2023-03-23T05:11:54;1.55;;;1.05;;
58637;SDS011;54976;51.510;7.522;2023-03-23T05:14:55;1.83;;;1.30;;
58637;SDS011;54976;51.510;7.522;2023-03-23T05:17:55;2.45;;;1.20;;
58637;SDS011;54976;51.510;7.522;2023-03-23T05:20:59;2.63;;;1.52;;
58637;SDS011;54976;51.510;7.522;2023-03-23T05:24:00;2.63;;;1.10;;
58637;SDS011;54976;51.510;7.522;2023-03-23T05:27:01;1.52;;;1.10;;
58637;SDS011;54976;51.510;7.522;2023-03-23T05:30:06;1.70;;;1.08;;
58637;SDS011;54976;51.510;7.522;2023-03-23T05:33:07;3.35;;;1.13;;
58637;SDS011;54976;51.510;7.522;2023-03-23T05:36:07;4.88;;;1.77;;
58637;SDS011;54976;51.510;7.522;2023-03-23T05:39:11;1.15;;;1.05;;
58637;SDS011;54976;51.510;7.522;2023-03-23T05:42:12;1.70;;;0.90;;
58637;SDS011;54976;51.510;7.522;2023-03-23T05:45:13;4.00;;;1.30;;
58637;SDS011;54976;51.510;7.522;2023-03-23T05:48:14;2.08;;;1.30;;
58637;SDS011;54976;51.510;7.522;2023-03-23T05:51:14;4.38;;;1.20;;
58637;SDS011;54976;51.510;7.522;2023-03-23T05:54:15;2.15;;;1.00;;
58637;SDS011;54976;51.510;7.522;2023-03-23T05:57:16;2.65;;;1.30;;
58637;SDS011;54976;51.510;7.522;2023-03-23T06:00:18;3.15;;;1.25;;
58637;SDS011;54976;51.510;7.522;2023-03-23T06:03:20;1.35;;;1.23;;
58637;SDS011;54976;51.510;7.522;2023-03-23T06:06:22;2.70;;;1.20;;
58637;SDS011;54976;51.510;7.522;2023-03-23T06:09:23;2.75;;;1.25;;
58637;SDS011;54976;51.510;7.522;2023-03-23T06:12:25;2.92;;;1.20;;
58637;SDS011;54976;51.510;7.522;2023-03-23T06:15:25;1.65;;;1.23;;
58637;SDS011;54976;51.510;7.522;2023-03-23T06:18:29;5.90;;;1.23;;
58637;SDS011;54976;51.510;7.522;2023-03-23T06:21:33;2.67;;;1.10;;
58637;SDS011;54976;51.510;7.522;2023-03-23T06:24:34;2.00;;;1.40;;
58637;SDS011;54976;51.510;7.522;2023-03-23T06:27:35;4.13;;;1.40;;
58637;SDS011;54976;51.510;7.522;2023-03-23T06:30:36;4.75;;;1.35;;
58637;SDS011;54976;51.510;7.522;2023-03-23T06:33:37;1.95;;;1.17;;
58637;SDS011;54976;51.510;7.522;2023-03-23T06:36:39;2.40;;;1.60;;
58637;SDS011;54976;51.510;7.522;2023-03-23T06:39:40;2.15;;;1.48;;
58637;SDS011;54976;51.510;7.522;2023-03-23T06:42:40;1.63;;;1.17;;
58637;SDS011;54976;51.510;7.522;2023-03-23T06:45:41;2.78;;;1.30;;
58637;SDS011;54976;51.510;7.522;2023-03-23T06:48:41;3.40;;;1.50;;
58637;SDS011;54976;51.510;7.522;2023-03-23T06:51:42;1.58;;;1.45;;
58637;SDS011;54976;51.510;7.522;2023-03-23T06:54:43;2.65;;;1.40;;
58637;SDS011;54976;51.510;7.522;2023-03-23T06:57:44;4.60;;;1.45;;
58637;SDS011;54976;51.510;7.522;2023-03-23T07:00:44;3.03;;;1.25;;
58637;SDS011;54976;51.510;7.522;2023-03-23T07:03:45;3.65;;;1.30;;
58637;SDS011;54976;51.510;7.522;2023-03-23T07:06:46;4.03;;;1.65;;
58637;SDS011;54976;51.510;7.522;2023-03-23T07:09:47;4.43;;;1.63;;
58637;SDS011;54976;51.510;7.522;2023-03-23T07:12:47;4.32;;;1.30;;
58637;SDS011;54976;51.510;7.522;2023-03-23T07:15:48;4.78;;;1.60;;
58637;SDS011;54976;51.510;7.522;2023-03-23T07:18:50;7.45;;;1.52;;
58637;SDS011;54976;51.510;7.522;2023-03-23T07:21:51;5.78;;;1.45;;
58637;SDS011;54976;51.510;7.522;2023-03-23T07:24:51;3.08;;;1.33;;
58637;SDS011;54976;51.510;7.522;2023-03-23T07:27:52;3.78;;;1.60;;
58637;SDS011;54976;51.510;7.522;2023-03-23T07:30:53;3.90;;;1.25;;
58637;SDS011;54976;51.510;7.522;2023-03-23T07:33:53;5.00;;;1.30;;
58637;SDS011;54976;51.510;7.522;2023-03-23T07:36:54;7.78;;;2.15;;
58637;SDS011;54976;51.510;7.522;2023-03-23T07:39:54;6.90;;;1.60;;
58637;SDS011;54976;51.510;7.522;2023-03-23T07:42:56;3.22;;;1.20;;
58637;SDS011;54976;51.510;7.522;2023-03-23T07:45:57;5.10;;;1.20;;
58637;SDS011;54976;51.510;7.522;2023-03-23T07:48:58;8.70;;;2.47;;
58637;SDS011;54976;51.510;7.522;2023-03-23T07:51:58;3.33;;;1.30;;
58637;SDS011;54976;51.510;7.522;2023-03-23T07:55:01;9.23;;;1.98;;
58637;SDS011;54976;51.510;7.522;2023-03-23T07:58:03;5.45;;;1.48;;
58637;SDS011;54976;51.510;7.522;2023-03-23T08:01:03;4.50;;;1.30;;
58637;SDS011;54976;51.510;7.522;2023-03-23T08:04:04;2.95;;;1.02;;
58637;SDS011;54976;51.510;7.522;2023-03-23T08:07:05;3.25;;;0.90;;
58637;SDS011;54976;51.510;7.522;2023-03-23T08:10:06;3.15;;;1.23;;
58637;SDS011;54976;51.510;7.522;2023-03-23T08:13:11;3.58;;;1.20;;
58637;SDS011;54976;51.510;7.522;2023-03-23T08:16:12;2.65;;;1.10;;
58637;SDS011;54976;51.510;7.522;2023-03-23T08:19:13;2.63;;;1.10;;
58637;SDS011;54976;51.510;7.522;2023-03-23T08:22:14;2.78;;;0.90;;
58637;SDS011;54976;51.510;7.522;2023-03-23T08:25:15;3.08;;;0.95;;
58637;SDS011;54976;51.510;7.522;2023-03-23T08:28:17;4.18;;;1.00;;
58637;SDS011;54976;51.510;7.522;2023-03-23T08:31:18;6.35;;;1.60;;
58637;SDS011;54976;51.510;7.522;2023-03-23T08:34:19;3.85;;;1.50;;
58637;SDS011;54976;51.510;7.522;2023-03-23T08:37:21;5.45;;;1.50;;
58637;SDS011;54976;51.510;7.522;2023-03-23T08:40:22;2.97;;;1.38;;
58637;SDS011;54976;51.510;7.522;2023-03-23T08:43:24;4.25;;;1.25;;
58637;SDS011;54976;51.510;7.522;2023-03-23T08:46:24;3.13;;;1.40;;
58637;SDS011;54976;51.510;7.522;2023-03-23T08:49:25;4.00;;;1.45;;
58637;SDS011;54976;51.510;7.522;2023-03-23T08:52:26;3.25;;;1.30;;
58637;SDS011;54976;51.510;7.522;2023-03-23T08:55:26;7.22;;;1.08;;
58637;SDS011;54976;51.510;7.522;2023-03-23T08:58:28;4.00;;;1.13;;
58637;SDS011;54976;51.510;7.522;2023-03-23T09:01:29;3.63;;;1.00;;
58637;SDS011;54976;51.510;7.522;2023-03-23T09:04:30;5.32;;;1.08;;
58637;SDS011;54976;51.510;7.522;2023-03-23T09:07:31;6.68;;;1.17;;
58637;SDS011;54976;51.510;7.522;2023-03-23T09:10:31;7.57;;;1.30;;
58637;SDS011;54976;51.510;7.522;2023-03-23T09:13:33;5.90;;;1.23;;
58637;SDS011;54976;51.510;7.522;2023-03-23T09:16:34;5.20;;;1.20;;
58637;SDS011;54976;51.510;7.522;2023-03-23T09:19:35;4.07;;;1.05;;
58637;SDS011;54976;51.510;7.522;2023-03-23T09:22:36;7.13;;;1.27;;
58637;SDS011;54976;51.510;7.522;2023-03-23T09:25:38;5.93;;;1.25;;
58637;SDS011;54976;51.510;7.522;2023-03-23T09:28:39;5.72;;;1.30;;
58637;SDS011;54976;51.510;7.522;2023-03-23T09:31:39;5.13;;;1.50;;
58637;SDS011;54976;51.510;7.522;2023-03-23T09:34:41;4.65;;;1.58;;
58637;SDS011;54976;51.510;7.522;2023-03-23T09:37:45;3.33;;;1.15;;
58637;SDS011;54976;51.510;7.522;2023-03-23T09:40:46;4.78;;;1.20;;
58637;SDS011;54976;51.510;7.522;2023-03-23T09:47:03;6.15;;;1.23;;
58637;SDS011;54976;51.510;7.522;2023-03-23T09:50:23;6.07;;;1.30;;
58637;SDS011;54976;51.510;7.522;2023-03-23T09:53:37;2.47;;;0.93;;
58637;SDS011;54976;51.510;7.522;2023-03-23T09:56:41;10.52;;;1.58;;
58637;SDS011;54976;51.510;7.522;2023-03-23T10:00:00;4.97;;;1.55;;
58637;SDS011;54976;51.510;7.522;2023-03-23T10:03:13;4.65;;;1.08;;
58637;SDS011;54976;51.510;7.522;2023-03-23T10:06:18;4.05;;;1.20;;
58637;SDS011;54976;51.510;7.522;2023-03-23T10:09:19;5.72;;;1.10;;
58637;SDS011;54976;51.510;7.522;2023-03-23T10:13:06;4.78;;;1.10;;
58637;SDS011;54976;51.510;7.522;2023-03-23T10:15:45;6.55;;;1.25;;
58637;SDS011;54976;51.510;7.522;2023-03-23T10:21:56;8.20;;;1.20;;
58637;SDS011;54976;51.510;7.522;2023-03-23T10:25:23;5.80;;;1.17;;
58637;SDS011;54976;51.510;7.522;2023-03-23T10:28:37;6.68;;;1.60;;
58637;SDS011;54976;51.510;7.522;2023-03-23T10:31:44;5.93;;;1.40;;
58637;SDS011;54976;51.510;7.522;2023-03-23T10:35:00;8.43;;;1.80;;
58637;SDS011;54976;51.510;7.522;2023-03-23T10:38:06;4.50;;;1.30;;
58637;SDS011;54976;51.510;7.522;2023-03-23T10:41:14;5.30;;;0.90;;
58637;SDS011;54976;51.510;7.522;2023-03-23T10:44:20;3.65;;;0.90;;
58637;SDS011;54976;51.510;7.522;2023-03-23T10:47:22;8.40;;;1.10;;
58637;SDS011;54976;51.510;7.522;2023-03-23T10:50:25;6.60;;;1.10;;
58637;SDS011;54976;51.510;7.522;2023-03-23T10:53:38;5.13;;;0.90;;
58637;SDS011;54976;51.510;7.522;2023-03-23T10:56:44;1.70;;;0.68;;
58637;SDS011;54976;51.510;7.522;2023-03-23T10:59:48;3.88;;;0.70;;
58637;SDS011;54976;51.510;7.522;2023-03-23T11:06:03;7.35;;;1.13;;
58637;SDS011;54976;51.510;7.522;2023-03-23T11:09:11;2.47;;;0.90;;
58637;SDS011;54976;51.510;7.522;2023-03-23T11:12:17;1.58;;;0.70;;
58637;SDS011;54976;51.510;7.522;2023-03-23T11:21:35;3.80;;;0.80;;
58637;SDS011;54976;51.510;7.522;2023-03-23T11:24:40;5.70;;;1.42;;
58637;SDS011;54976;51.510;7.522;2023-03-23T11:27:43;5.95;;;1.38;;
58637;SDS011;54976;51.510;7.522;2023-03-23T11:30:43;2.88;;;1.27;;
58637;SDS011;54976;51.510;7.522;2023-03-23T11:37:01;2.63;;;1.55;;
58637;SDS011;54976;51.510;7.522;2023-03-23T11:43:13;3.63;;;1.70;;
58637;SDS011;54976;51.510;7.522;2023-03-23T11:46:26;3.33;;;2.03;;
58637;SDS011;54976;51.510;7.522;2023-03-23T11:59:16;5.43;;;3.25;;
58637;SDS011;54976;51.510;7.522;2023-03-23T12:05:49;6.35;;;3.50;;
58637;SDS011;54976;51.510;7.522;2023-03-23T12:08:58;6.72;;;3.45;;
58637;SDS011;54976;51.510;7.522;2023-03-23T12:15:38;10.68;;;5.75;;
58637;SDS011;54976;51.510;7.522;2023-03-23T12:22:10;7.28;;;6.10;;
58637;SDS011;54976;51.510;7.522;2023-03-23T12:28:35;8.38;;;3.45;;
58637;SDS011;54976;51.510;7.522;2023-03-23T12:32:19;6.60;;;3.40;;
58637;SDS011;54976;51.510;7.522;2023-03-23T12:35:32;5.05;;;2.80;;
58637;SDS011;54976;51.510;7.522;2023-03-23T12:48:56;4.05;;;2.47;;
58637;SDS011;54976;51.510;7.522;2023-03-23T12:52:10;6.32;;;2.80;;
58637;SDS011;54976;51.510;7.522;2023-03-23T12:55:17;3.30;;;2.75;;
58637;SDS011;54976;51.510;7.522;2023-03-23T12:58:26;5.13;;;2.03;;
58637;SDS011;54976;51.510;7.522;2023-03-23T13:01:30;2.72;;;2.45;;
58637;SDS011;54976;51.510;7.522;2023-03-23T13:04:38;2.60;;;2.10;;
58637;SDS011;54976;51.510;7.522;2023-03-23T13:07:46;4.35;;;2.13;;
58637;SDS011;54976;51.510;7.522;2023-03-23T13:10:52;3.70;;;1.83;;
58637;SDS011;54976;51.510;7.522;2023-03-23T13:21:02;6.55;;;2.50;;
58637;SDS011;54976;51.510;7.522;2023-03-23T13:24:15;4.13;;;2.22;;
58637;SDS011;54976;51.510;7.522;2023-03-23T13:27:22;1.73;;;1.20;;
58637;SDS011;54976;51.510;7.522;2023-03-23T13:30:29;2.83;;;2.00;;
58637;SDS011;54976;51.510;7.522;2023-03-23T13:33:31;4.10;;;1.67;;
58637;SDS011;54976;51.510;7.522;2023-03-23T13:39:50;4.38;;;1.27;;
58637;SDS011;54976;51.510;7.522;2023-03-23T13:43:13;3.60;;;1.60;;
58637;SDS011;54976;51.510;7.522;2023-03-23T13:46:28;1.95;;;0.85;;
58637;SDS011;54976;51.510;7.522;2023-03-23T13:49:31;2.47;;;1.30;;
58637;SDS011;54976;51.510;7.522;2023-03-23T13:55:49;4.18;;;1.33;;
58637;SDS011;54976;51.510;7.522;2023-03-23T13:59:04;1.95;;;0.77;;
58637;SDS011;54976;51.510;7.522;2023-03-23T14:02:26;3.72;;;1.30;;
58637;SDS011;54976;51.510;7.522;2023-03-23T14:05:31;2.22;;;1.02;;
58637;SDS011;54976;51.510;7.522;2023-03-23T14:08:38;5.35;;;1.70;;
58637;SDS011;54976;51.510;7.522;2023-03-23T14:11:57;5.27;;;1.77;;
58637;SDS011;54976;51.510;7.522;2023-03-23T14:15:11;3.13;;;1.60;;
58637;SDS011;54976;51.510;7.522;2023-03-23T14:18:15;6.25;;;1.52;;
58637;SDS011;54976;51.510;7.522;2023-03-23T14:21:16;4.03;;;2.20;;
58637;SDS011;54976;51.510;7.522;2023-03-23T14:24:23;12.50;;;5.47;;
58637;SDS011;54976;51.510;7.522;2023-03-23T14:27:26;2.90;;;2.30;;
58637;SDS011;54976;51.510;7.522;2023-03-23T14:30:27;4.70;;;2.53;;
58637;SDS011;54976;51.510;7.522;2023-03-23T14:33:37;3.40;;;2.85;;
58637;SDS011;54976;51.510;7.522;2023-03-23T14:36:41;5.90;;;3.28;;
58637;SDS011;54976;51.510;7.522;2023-03-23T14:39:48;5.93;;;2.70;;
58637;SDS011;54976;51.510;7.522;2023-03-23T14:42:51;7.25;;;3.50;;
58637;SDS011;54976;51.510;7.522;2023-03-23T14:45:55;6.63;;;3.90;;
58637;SDS011;54976;51.510;7.522;2023-03-23T14:49:02;5.22;;;4.15;;
58637;SDS011;54976;51.510;7.522;2023-03-23T14:52:11;7.57;;;4.82;;
58637;SDS011;54976;51.510;7.522;2023-03-23T14:55:14;7.55;;;4.43;;
58637;SDS011;54976;51.510;7.522;2023-03-23T14:58:20;7.18;;;3.90;;
58637;SDS011;54976;51.510;7.522;2023-03-23T15:04:24;8.57;;;4.00;;
58637;SDS011;54976;51.510;7.522;2023-03-23T15:07:28;7.40;;;3.83;;
58637;SDS011;54976;51.510;7.522;2023-03-23T15:10:31;4.78;;;3.20;;
58637;SDS011;54976;51.510;7.522;2023-03-23T15:13:33;5.43;;;2.97;;
58637;SDS011;54976;51.510;7.522;2023-03-23T15:16:35;5.35;;;2.88;;
58637;SDS011;54976;51.510;7.522;2023-03-23T15:19:37;4.72;;;3.00;;
58637;SDS011;54976;51.510;7.522;2023-03-23T15:22:44;7.65;;;3.17;;
58637;SDS011;54976;51.510;7.522;2023-03-23T15:25:50;6.10;;;2.80;;
58637;SDS011;54976;51.510;7.522;2023-03-23T15:32:09;6.82;;;2.83;;
58637;SDS011;54976;51.510;7.522;2023-03-23T15:35:12;3.10;;;2.15;;
58637;SDS011;54976;51.510;7.522;2023-03-23T15:41:30;10.73;;;2.13;;
58637;SDS011;54976;51.510;7.522;2023-03-23T15:44:34;3.92;;;1.50;;
58637;SDS011;54976;51.510;7.522;2023-03-23T15:47:37;4.45;;;1.20;;
58637;SDS011;54976;51.510;7.522;2023-03-23T15:50:41;4.63;;;1.30;;
58637;SDS011;54976;51.510;7.522;2023-03-23T15:53:41;6.80;;;1.73;;
58637;SDS011;54976;51.510;7.522;2023-03-23T15:56:42;4.75;;;1.35;;
58637;SDS011;54976;51.510;7.522;2023-03-23T15:59:44;2.50;;;0.85;;
58637;SDS011;54976;51.510;7.522;2023-03-23T16:02:45;4.18;;;1.33;;
58637;SDS011;54976;51.510;7.522;2023-03-23T16:05:48;4.13;;;1.38;;
58637;SDS011;54976;51.510;7.522;2023-03-23T16:08:49;5.25;;;1.42;;
58637;SDS011;54976;51.510;7.522;2023-03-23T16:11:50;3.75;;;1.23;;
58637;SDS011;54976;51.510;7.522;2023-03-23T16:14:50;4.18;;;1.27;;
58637;SDS011;54976;51.510;7.522;2023-03-23T16:17:52;5.82;;;1.00;;
58637;SDS011;54976;51.510;7.522;2023-03-23T16:20:52;4.05;;;0.90;;
58637;SDS011;54976;51.510;7.522;2023-03-23T16:23:53;4.70;;;1.52;;
58637;SDS011;54976;51.510;7.522;2023-03-23T16:26:55;9.60;;;1.90;;
58637;SDS011;54976;51.510;7.522;2023-03-23T16:29:55;7.55;;;1.55;;
58637;SDS011;54976;51.510;7.522;2023-03-23T16:32:57;5.55;;;1.40;;
58637;SDS011;54976;51.510;7.522;2023-03-23T16:35:58;6.75;;;1.92;;
58637;SDS011;54976;51.510;7.522;2023-03-23T16:38:59;6.97;;;1.67;;
58637;SDS011;54976;51.510;7.522;2023-03-23T16:42:00;7.22;;;1.92;;
58637;SDS011;54976;51.510;7.522;2023-03-23T16:45:00;9.00;;;2.05;;
58637;SDS011;54976;51.510;7.522;2023-03-23T16:48:01;4.40;;;1.80;;
58637;SDS011;54976;51.510;7.522;2023-03-23T16:51:02;7.32;;;2.17;;
58637;SDS011;54976;51.510;7.522;2023-03-23T16:54:02;5.80;;;1.83;;
58637;SDS011;54976;51.510;7.522;2023-03-23T16:57:03;4.43;;;2.10;;
58637;SDS011;54976;51.510;7.522;2023-03-23T17:00:10;5.45;;;2.30;;
58637;SDS011;54976;51.510;7.522;2023-03-23T17:03:14;7.05;;;2.40;;
58637;SDS011;54976;51.510;7.522;2023-03-23T17:06:16;7.25;;;2.47;;
58637;SDS011;54976;51.510;7.522;2023-03-23T17:09:17;6.90;;;2.30;;
58637;SDS011;54976;51.510;7.522;2023-03-23T17:12:17;5.57;;;1.90;;
58637;SDS011;54976;51.510;7.522;2023-03-23T17:15:18;6.82;;;2.67;;
58637;SDS011;54976;51.510;7.522;2023-03-23T17:18:19;9.25;;;2.72;;
58637;SDS011;54976;51.510;7.522;2023-03-23T17:21:20;5.93;;;2.58;;
58637;SDS011;54976;51.510;7.522;2023-03-23T17:24:24;10.55;;;2.88;;
58637;SDS011;54976;51.510;7.522;2023-03-23T17:27:26;26.88;;;13.70;;
58637;SDS011;54976;51.510;7.522;2023-03-23T17:30:27;19.35;;;9.13;;
58637;SDS011;54976;51.510;7.522;2023-03-23T17:33:27;48.65;;;27.08;;
58637;SDS011;54976;51.510;7.522;2023-03-23T17:36:28;24.13;;;13.70;;
58637;SDS011;54976;51.510;7.522;2023-03-23T17:39:30;13.38;;;7.22;;
58637;SDS011;54976;51.510;7.522;2023-03-23T17:42:30;11.90;;;6.07;;
58637;SDS011;54976;51.510;7.522;2023-03-23T17:45:31;8.93;;;3.33;;
58637;SDS011;54976;51.510;7.522;2023-03-23T17:48:32;8.70;;;5.55;;
58637;SDS011;54976;51.510;7.522;2023-03-23T17:51:33;14.07;;;6.60;;
58637;SDS011;54976;51.510;7.522;2023-03-23T17:54:33;13.82;;;6.80;;
58637;SDS011;54976;51.510;7.522;2023-03-23T17:57:34;6.45;;;3.05;;
58637;SDS011;54976;51.510;7.522;2023-03-23T18:00:35;14.07;;;7.57;;
58637;SDS011;54976;51.510;7.522;2023-03-23T18:03:36;4.10;;;3.55;;
58637;SDS011;54976;51.510;7.522;2023-03-23T18:06:37;6.47;;;3.25;;
58637;SDS011;54976;51.510;7.522;2023-03-23T18:09:38;5.55;;;2.00;;
58637;SDS011;54976;51.510;7.522;2023-03-23T18:12:39;5.80;;;1.73;;
58637;SDS011;54976;51.510;7.522;2023-03-23T18:15:42;7.18;;;3.20;;
58637;SDS011;54976;51.510;7.522;2023-03-23T18:18:43;12.15;;;2.88;;
58637;SDS011;54976;51.510;7.522;2023-03-23T18:21:46;4.45;;;1.98;;
58637;SDS011;54976;51.510;7.522;2023-03-23T18:24:46;6.82;;;2.25;;
58637;SDS011;54976;51.510;7.522;2023-03-23T18:27:47;9.02;;;3.22;;
58637;SDS011;54976;51.510;7.522;2023-03-23T18:30:48;10.00;;;5.43;;
58637;SDS011;54976;51.510;7.522;2023-03-23T18:33:49;11.07;;;4.07;;
58637;SDS011;54976;51.510;7.522;2023-03-23T18:36:50;11.95;;;7.70;;
58637;SDS011;54976;51.510;7.522;2023-03-23T18:39:51;14.35;;;6.80;;
58637;SDS011;54976;51.510;7.522;2023-03-23T18:42:52;15.40;;;8.60;;
58637;SDS011;54976;51.510;7.522;2023-03-23T18:45:54;14.93;;;8.75;;
58637;SDS011;54976;51.510;7.522;2023-03-23T18:48:56;28.10;;;16.90;;
58637;SDS011;54976;51.510;7.522;2023-03-23T18:51:56;8.40;;;4.53;;
58637;SDS011;54976;51.510;7.522;2023-03-23T18:54:57;11.98;;;6.43;;
58637;SDS011;54976;51.510;7.522;2023-03-23T18:57:58;8.45;;;3.20;;
58637;SDS011;54976;51.510;7.522;2023-03-23T19:01:03;9.85;;;2.95;;
58637;SDS011;54976;51.510;7.522;2023-03-23T19:04:06;6.95;;;2.42;;
58637;SDS011;54976;51.510;7.522;2023-03-23T19:07:06;10.90;;;2.75;;
58637;SDS011;54976;51.510;7.522;2023-03-23T19:10:07;10.90;;;2.17;;
58637;SDS011;54976;51.510;7.522;2023-03-23T19:13:08;17.10;;;8.50;;
58637;SDS011;54976;51.510;7.522;2023-03-23T19:16:10;16.95;;;8.95;;
58637;SDS011;54976;51.510;7.522;2023-03-23T19:19:11;14.98;;;5.45;;
58637;SDS011;54976;51.510;7.522;2023-03-23T19:22:11;45.30;;;22.48;;
58637;SDS011;54976;51.510;7.522;2023-03-23T19:25:13;58.60;;;30.95;;
58637;SDS011;54976;51.510;7.522;2023-03-23T19:28:14;12.95;;;7.35;;
58637;SDS011;54976;51.510;7.522;2023-03-23T19:31:15;8.13;;;3.58;;
58637;SDS011;54976;51.510;7.522;2023-03-23T19:34:16;12.25;;;4.45;;
58637;SDS011;54976;51.510;7.522;2023-03-23T19:37:17;9.65;;;2.60;;
58637;SDS011;54976;51.510;7.522;2023-03-23T19:40:18;4.57;;;1.90;;
58637;SDS011;54976;51.510;7.522;2023-03-23T19:43:19;7.60;;;4.20;;
58637;SDS011;54976;51.510;7.522;2023-03-23T19:46:20;7.82;;;2.33;;
58637;SDS011;54976;51.510;7.522;2023-03-23T19:49:21;34.33;;;24.05;;
58637;SDS011;54976;51.510;7.522;2023-03-23T19:52:22;14.30;;;6.85;;
58637;SDS011;54976;51.510;7.522;2023-03-23T19:55:22;32.80;;;13.30;;
58637;SDS011;54976;51.510;7.522;2023-03-23T19:58:23;16.23;;;10.02;;
58637;SDS011;54976;51.510;7.522;2023-03-23T20:01:24;7.65;;;2.05;;
58637;SDS011;54976;51.510;7.522;2023-03-23T20:04:24;7.22;;;2.45;;
58637;SDS011;54976;51.510;7.522;2023-03-23T20:07:26;5.03;;;1.80;;
58637;SDS011;54976;51.510;7.522;2023-03-23T20:10:26;10.27;;;2.42;;
58637;SDS011;54976;51.510;7.522;2023-03-23T20:13:27;5.20;;;1.73;;